Time;durP1;ratioP1;P1;durP2;ratioP2;P2;SDS_P1;SDS_P2;PMS_P1;PMS_P2;Temp;Humidity;BMP_temperature;BMP_pressure;BME280_temperature;BME280_humidity;BME280_pressure;Samples;Min_cycle;Max_cycle;Signal;HPM_P1;HPM_P2
2021/01/21 00:00:45;;;;;;;139.12;49.55;;;;;;;-15.77;69.01;101042.14;1735380;81;21121;-72
2021/01/21 00:03:13;;;;;;;139.40;50.77;;;;;;;-15.77;69.06;101043.91;1721074;81;21536;-83
2021/01/21 00:05:43;;;;;;;133.93;50.80;;;;;;;-15.72;68.95;101032.31;1741930;81;21128;-71
2021/01/21 00:08:11;;;;;;;120.37;45.75;;;;;;;-15.73;68.95;101035.84;1750224;82;21148;-73
2021/01/21 00:10:38;;;;;;;;;;;;;;;-15.68;69.07;101034.33;1717714;82;21667;-72
2021/01/21 00:13:08;;;;;;;112.57;43.10;;;;;;;-15.66;68.99;101035.14;1731476;82;20186;-72
2021/01/21 00:15:36;;;;;;;105.83;41.00;;;;;;;-15.60;68.88;101042.73;1735342;81;21141;-72
2021/01/21 00:18:04;;;;;;;101.82;38.45;;;;;;;-15.58;68.61;101041.38;1740414;82;21192;-72
2021/01/21 00:20:32;;;;;;;103.23;40.13;;;;;;;-15.62;68.46;101041.95;1736465;81;21569;-72
2021/01/21 00:23:00;;;;;;;;;;;;;;;-15.65;68.67;101044.70;1726751;81;21114;-72
2021/01/21 00:25:28;;;;;;;90.95;34.95;;;;;;;-15.65;68.68;101046.01;1732346;81;20501;-81
2021/01/21 00:27:55;;;;;;;95.85;36.00;;;;;;;-15.66;68.54;101035.14;1709871;83;21124;-80
2021/01/21 00:30:23;;;;;;;94.07;36.03;;;;;;;-15.66;68.56;101040.39;1708373;81;21144;-71
2021/01/21 00:32:51;;;;;;;113.47;37.33;;;;;;;-15.63;68.62;101038.47;1729520;82;21168;-70
2021/01/21 00:35:19;;;;;;;101.40;36.70;;;;;;;-15.60;68.41;101038.80;1741195;82;21144;-73
2021/01/21 00:37:47;;;;;;;107.13;37.00;;;;;;;-15.65;68.19;101043.39;1727832;81;21157;-71
2021/01/21 00:40:15;;;;;;;110.30;38.90;;;;;;;-15.71;68.17;101044.97;1740987;82;21418;-73
2021/01/21 00:42:42;;;;;;;103.60;38.55;;;;;;;-15.78;68.17;101043.05;1707226;81;21156;-73
2021/01/21 00:45:11;;;;;;;104.03;37.78;;;;;;;-15.83;68.37;101044.16;1735236;81;21266;-74
2021/01/21 00:47:39;;;;;;;105.93;39.47;;;;;;;-15.89;68.38;101043.97;1720737;82;21179;-80
2021/01/21 00:50:07;;;;;;;110.47;40.27;;;;;;;-15.88;68.59;101047.42;1732822;81;21252;-81
2021/01/21 00:52:36;;;;;;;105.90;39.03;;;;;;;-15.90;68.47;101054.50;1720850;81;21131;-82
2021/01/21 00:55:05;;;;;;;106.25;41.25;;;;;;;-15.95;68.37;101052.08;1693608;83;21160;-75
2021/01/21 00:57:32;;;;;;;124.10;44.13;;;;;;;-16.00;68.47;101040.92;1734434;81;21188;-74
2021/01/21 01:00:02;;;;;;;;;;;;;;;-15.98;68.53;101050.02;1710005;82;21673;-79
2021/01/21 01:02:30;;;;;;;114.83;42.00;;;;;;;-15.99;68.52;101039.16;1681239;82;20176;-74
2021/01/21 01:04:58;;;;;;;;;;;;;;;-15.96;68.51;101045.59;1722641;82;21171;-76
2021/01/21 01:07:27;;;;;;;112.83;41.37;;;;;;;-15.92;68.49;101049.78;1693051;81;20299;-74
2021/01/21 01:09:55;;;;;;;;;;;;;;;-15.87;68.39;101047.37;1717650;82;21147;-79
2021/01/21 01:12:23;;;;;;;119.73;43.70;;;;;;;-15.84;68.18;101045.09;1707810;83;20197;-74
2021/01/21 01:14:51;;;;;;;125.30;44.07;;;;;;;-15.91;68.22;101040.53;1707513;83;21159;-74
2021/01/21 01:17:19;;;;;;;116.87;42.60;;;;;;;-15.88;68.27;101041.72;1723429;82;21093;-75
2021/01/21 01:19:49;;;;;;;121.40;43.63;;;;;;;-15.91;68.22;101043.16;1746301;81;21576;-73
2021/01/21 01:22:17;;;;;;;121.37;42.98;;;;;;;-15.95;68.17;101041.59;1712640;82;21671;-75
2021/01/21 01:24:45;;;;;;;128.77;45.03;;;;;;;-15.95;68.35;101040.73;1719512;81;21170;-76
2021/01/21 01:27:13;;;;;;;131.45;45.50;;;;;;;-15.95;68.12;101043.35;1730696;81;21196;-90
2021/01/21 01:29:45;;;;;;;127.37;45.57;;;;;;;-15.99;68.25;101041.78;1706611;82;23305;-91
2021/01/21 01:32:15;;;;;;;123.37;45.77;;;;;;;-15.99;68.32;101033.92;1750611;81;21561;-91
2021/01/21 01:34:44;;;;;;;135.53;46.37;;;;;;;-16.01;68.38;101034.45;1731380;81;21176;-87
2021/01/21 01:37:15;;;;;;;119.47;45.40;;;;;;;-16.01;68.44;101034.45;1708996;81;21191;-74
2021/01/21 01:39:52;;;;;;;116.00;43.00;;;;;;;-16.03;68.33;101029.70;1733865;80;21154;-72
2021/01/21 01:42:22;;;;;;;119.13;43.93;;;;;;;-16.03;68.35;101023.15;1748877;81;21141;-73
2021/01/21 01:44:52;;;;;;;114.03;44.20;;;;;;;-16.03;68.47;101019.21;1733469;80;21678;-81
2021/01/21 01:47:20;;;;;;;125.07;43.40;;;;;;;-16.02;68.52;101019.63;1725289;82;21120;-82
2021/01/21 01:49:49;;;;;;;117.67;45.50;;;;;;;-16.01;68.63;101023.96;1733739;80;21170;-73
2021/01/21 01:52:17;;;;;;;119.67;43.70;;;;;;;-15.99;68.46;101024.74;1720118;81;21175;-72
2021/01/21 01:54:48;;;;;;;127.10;46.83;;;;;;;-15.99;68.37;101022.12;1730905;82;21261;-82
2021/01/21 01:57:23;;;;;;;127.03;45.07;;;;;;;-15.98;68.31;101018.12;1735071;81;21106;-81
2021/01/21 01:59:55;;;;;;;118.47;42.33;;;;;;;-15.98;68.29;101006.77;1728611;81;21115;-72
2021/01/21 02:02:23;;;;;;;109.13;42.57;;;;;;;-16.00;68.31;101005.98;1726357;81;21097;-72
2021/01/21 02:04:53;;;;;;;118.80;44.10;;;;;;;-16.03;68.39;101008.73;1738693;82;21188;-81
2021/01/21 02:07:24;;;;;;;113.77;44.27;;;;;;;-16.07;68.62;101001.47;1724589;81;21462;-81
2021/01/21 02:09:55;;;;;;;109.67;41.50;;;;;;;-16.07;68.80;100993.61;1719127;82;21125;-82
2021/01/21 02:12:44;;;;;;;105.23;42.37;;;;;;;-16.05;68.72;100996.15;1725140;81;21143;-82
2021/01/21 02:15:36;;;;;;;103.43;39.17;;;;;;;-16.05;68.91;100996.15;1690397;82;21149;-81
2021/01/21 02:18:21;;;;;;;100.40;39.13;;;;;;;-16.01;68.63;100994.64;1724531;81;21167;-82
2021/01/21 02:21:31;;;;;;;105.00;38.60;;;;;;;-16.01;68.80;100994.64;1715944;81;21257;-81
2021/01/21 02:24:32;;;;;;;95.73;35.40;;;;;;;-15.98;68.88;100989.73;1709454;82;21139;-83
2021/01/21 02:27:04;;;;;;;95.43;35.80;;;;;;;-15.99;68.47;100989.36;1707369;81;21139;-74
2021/01/21 02:29:37;;;;;;;118.13;42.67;;;;;;;-15.97;68.55;100991.45;1692791;82;21161;-82
2021/01/21 02:32:14;;;;;;;120.90;44.40;;;;;;;-16.02;68.20;100990.78;1734747;81;21109;-81
2021/01/21 02:35:09;;;;;;;125.27;44.87;;;;;;;-15.99;68.42;100991.98;1726238;82;21236;-84
2021/01/21 02:37:38;;;;;;;111.40;40.97;;;;;;;-15.97;68.35;100995.38;1717529;81;21562;-83
2021/01/21 02:40:09;;;;;;;118.00;43.00;;;;;;;-15.95;68.11;100993.09;1725230;81;21100;-83
2021/01/21 02:42:47;;;;;;;106.93;40.03;;;;;;;-15.95;68.20;100989.16;1703845;82;21167;-82
2021/01/21 02:45:19;;;;;;;108.63;40.17;;;;;;;-15.95;68.19;100985.67;1700266;82;21232;-83
2021/01/21 02:47:49;;;;;;;106.40;38.07;;;;;;;-15.97;68.36;100981.82;1716849;83;21141;-87
2021/01/21 02:50:19;;;;;;;102.67;37.77;;;;;;;-15.99;68.44;100986.73;1693962;82;21121;-74
2021/01/21 02:53:02;;;;;;;103.63;37.97;;;;;;;-15.94;68.29;100979.53;1702114;82;21173;-72
2021/01/21 02:55:42;;;;;;;113.13;39.37;;;;;;;-15.97;68.09;100977.03;1714465;81;21142;-73
2021/01/21 02:58:16;;;;;;;119.87;41.90;;;;;;;-15.99;67.94;100979.73;1689463;84;21175;-80
2021/01/21 03:00:45;;;;;;;111.73;43.27;;;;;;;-16.03;67.97;100991.23;1713160;82;21173;-79
2021/01/21 03:03:15;;;;;;;115.97;43.27;;;;;;;-16.02;68.14;100990.34;1720674;82;21186;-72
2021/01/21 03:05:44;;;;;;;110.33;40.77;;;;;;;-15.97;68.04;100989.69;1714792;81;21202;-74
2021/01/21 03:08:14;;;;;;;107.23;41.07;;;;;;;-15.96;67.97;100983.98;1719126;81;21144;-71
2021/01/21 03:10:43;;;;;;;120.03;44.37;;;;;;;-16.00;67.61;100985.02;1735946;81;21154;-71
2021/01/21 03:13:12;;;;;;;121.90;44.50;;;;;;;-16.10;67.68;100979.31;1734239;82;21098;-69
2021/01/21 03:15:42;;;;;;;113.67;43.50;;;;;;;-16.14;67.92;100977.74;1728213;81;21581;-71
2021/01/21 03:18:12;;;;;;;116.77;41.70;;;;;;;-16.12;68.18;100983.77;1732528;82;21126;-70
2021/01/21 03:20:40;;;;;;;113.33;43.43;;;;;;;-16.11;68.02;100985.94;1730966;81;21176;-70
2021/01/21 03:23:09;;;;;;;127.87;43.50;;;;;;;-16.17;67.94;100983.56;1737265;81;21177;-71
2021/01/21 03:25:39;;;;;;;119.33;43.80;;;;;;;-16.20;68.31;100983.23;1736617;81;21135;-73
2021/01/21 03:28:09;;;;;;;117.23;44.10;;;;;;;-16.13;68.33;100987.75;1729995;81;21167;-86
2021/01/21 03:30:37;;;;;;;;;;;;;;;-16.09;68.04;100994.13;1725740;81;21123;-86
2021/01/21 03:33:05;;;;;;;123.37;45.10;;;;;;;-16.08;68.07;100989.72;1733302;81;20157;-86
2021/01/21 03:35:35;;;;;;;120.43;44.07;;;;;;;-16.13;68.00;100983.81;1754404;82;21161;-87
2021/01/21 03:38:03;;;;;;;;;;;;;;;-16.15;68.15;100983.03;1730435;80;21146;-88
2021/01/21 03:40:33;;;;;;;114.80;42.77;;;;;;;-16.12;68.22;100980.29;1755847;81;20171;-82
2021/01/21 03:43:01;;;;;;;122.60;42.10;;;;;;;-16.13;68.13;100983.81;1741927;80;21142;-82
2021/01/21 03:45:31;;;;;;;113.53;42.67;;;;;;;-16.11;68.09;100975.45;1734431;82;21154;-82
2021/01/21 03:48:01;;;;;;;113.87;39.93;;;;;;;-16.14;68.13;100976.89;1730685;80;21666;-81
2021/01/21 03:50:31;;;;;;;119.07;44.10;;;;;;;-16.12;67.92;100977.67;1741307;80;21293;-83
2021/01/21 03:52:58;;;;;;;124.42;43.10;;;;;;;-16.15;67.87;100976.48;1748296;80;21221;-85
2021/01/21 03:55:29;;;;;;;118.80;42.87;;;;;;;-16.19;67.95;100978.84;1719096;82;21159;-87
2021/01/21 03:57:59;;;;;;;113.57;41.37;;;;;;;-16.21;67.94;100980.69;1734157;80;21534;-90
2021/01/21 04:00:28;;;;;;;112.33;41.33;;;;;;;-16.18;68.34;100991.88;1754881;81;21168;-87
2021/01/21 04:02:58;;;;;;;110.93;41.90;;;;;;;-16.14;68.25;101001.78;1755247;80;21214;-90
2021/01/21 04:05:44;;;;;;;103.50;40.33;;;;;;;-16.12;68.22;100996.02;1719214;82;21123;-88
2021/01/21 04:08:13;;;;;;;119.00;39.50;;;;;;;-16.07;68.27;101000.16;1702563;81;21120;-86
2021/01/21 04:10:43;;;;;;;108.27;39.23;;;;;;;-16.05;67.96;101006.19;1756304;81;21124;-87
2021/01/21 04:13:24;;;;;;;108.63;39.13;;;;;;;-16.10;68.02;100997.66;1725192;82;21143;-87
2021/01/21 04:15:52;;;;;;;;;;;;;;;-16.11;67.81;101001.66;1731457;81;21144;-75
2021/01/21 04:18:21;;;;;;;112.70;37.57;;;;;;;-16.15;67.83;101004.86;1713639;81;20235;-75
2021/01/21 04:20:56;;;;;;;97.20;37.90;;;;;;;-16.16;67.82;101008.86;1737756;80;21242;-74
2021/01/21 04:23:24;;;;;;;110.42;39.40;;;;;;;-16.21;67.72;101012.12;1734918;81;21160;-80
2021/01/21 04:25:52;;;;;;;111.85;40.73;;;;;;;-16.26;67.58;101010.53;1722830;82;21560;-80
2021/01/21 04:28:20;;;;;;;121.57;42.43;;;;;;;-16.30;67.83;101002.86;1744695;82;21137;-80
2021/01/21 04:30:49;;;;;;;114.33;40.20;;;;;;;-16.35;67.80;101000.88;1719500;82;21185;-80
2021/01/21 04:33:17;;;;;;;108.00;39.57;;;;;;;-16.37;67.93;100995.72;1712930;83;21551;-80
2021/01/21 04:35:46;;;;;;;112.67;40.27;;;;;;;-16.31;67.80;101003.31;1706472;82;21184;-79
2021/01/21 04:38:15;;;;;;;102.57;39.90;;;;;;;-16.36;67.90;101000.47;1709433;83;21603;-79
2021/01/21 04:40:45;;;;;;;115.63;40.03;;;;;;;-16.34;68.10;101001.29;1729266;80;21575;-74
2021/01/21 04:43:32;;;;;;;107.87;39.73;;;;;;;-16.29;68.05;100998.85;1753172;82;21124;-74
2021/01/21 04:46:07;;;;;;;104.37;38.27;;;;;;;-16.26;68.00;101007.91;1735398;80;21123;-78
2021/01/21 04:48:35;;;;;;;113.80;40.93;;;;;;;-16.28;67.73;101004.50;1744104;82;21101;-79
2021/01/21 04:51:11;;;;;;;104.00;38.07;;;;;;;-16.30;67.75;100994.55;1743445;80;21218;-79
2021/01/21 04:53:49;;;;;;;103.67;38.53;;;;;;;-16.30;67.66;100994.55;1740296;82;21130;-74
2021/01/21 04:56:27;;;;;;;99.32;39.27;;;;;;;-16.29;67.65;101001.95;1716209;81;21647;-74
2021/01/21 04:59:02;;;;;;;106.07;40.53;;;;;;;-16.28;67.88;100999.27;1686338;82;21584;-79
2021/01/21 05:01:38;;;;;;;116.13;40.50;;;;;;;-16.21;67.83;101002.95;1716493;82;21141;-79
2021/01/21 05:04:06;;;;;;;;;;;;;;;-16.20;67.80;101000.71;1694717;82;21165;-72
2021/01/21 05:06:48;;;;;;;109.13;36.63;;;;;;;-16.17;67.57;101009.77;1735953;80;20154;-79
2021/01/21 05:09:17;;;;;;;95.50;35.33;;;;;;;-16.21;67.52;101009.51;1738410;81;21117;-84
2021/01/21 05:11:47;;;;;;;102.80;37.80;;;;;;;-16.21;67.51;101012.12;1729517;80;21244;-72
2021/01/21 05:14:27;;;;;;;104.53;38.40;;;;;;;-16.16;67.72;101014.11;1725493;82;21220;-85
2021/01/21 05:17:14;;;;;;;103.35;37.23;;;;;;;-16.12;67.58;101011.74;1734708;80;21239;-72
2021/01/21 05:19:54;;;;;;;103.97;38.00;;;;;;;-16.11;67.37;101009.53;1730370;83;21248;-82
2021/01/21 05:22:31;;;;;;;116.10;39.77;;;;;;;-16.12;67.53;101025.70;1731573;80;21575;-73
2021/01/21 05:25:02;;;;;;;112.47;40.40;;;;;;;-16.11;67.53;101022.63;1670114;84;21241;-72
2021/01/21 05:27:37;;;;;;;113.87;38.50;;;;;;;-16.08;67.45;101021.17;1724788;80;21133;-82
2021/01/21 05:30:08;;;;;;;104.20;39.87;;;;;;;-16.04;67.25;101020.15;1663328;84;21113;-75
2021/01/21 05:32:37;;;;;;;115.90;41.37;;;;;;;-16.04;67.08;101028.02;1697075;82;21128;-84
2021/01/21 05:35:14;;;;;;;112.00;42.70;;;;;;;-16.05;67.11;101023.22;1692026;81;21113;-87
2021/01/21 05:37:44;;;;;;;118.63;39.93;;;;;;;-16.07;67.03;101018.95;1700747;82;21730;-73
2021/01/21 05:40:31;;;;;;;113.88;40.67;;;;;;;-16.10;66.99;101024.32;1750978;81;21199;-71
2021/01/21 05:43:02;;;;;;;103.47;39.40;;;;;;;-16.10;67.12;101024.32;1740803;80;21838;-78
2021/01/21 05:45:34;;;;;;;106.13;38.57;;;;;;;-16.09;67.01;101019.03;1703901;84;21276;-76
2021/01/21 05:48:05;;;;;;;111.13;38.30;;;;;;;-16.07;66.99;101016.34;1715880;80;21196;-77
2021/01/21 05:50:34;;;;;;;102.03;38.83;;;;;;;-16.05;67.25;101014.50;1714830;84;21176;-80
2021/01/21 05:53:08;;;;;;;108.00;39.63;;;;;;;-16.00;67.31;101016.47;1715000;84;21285;-82
2021/01/21 05:55:40;;;;;;;110.33;37.43;;;;;;;-15.94;67.16;101010.98;1739485;81;21154;-75
2021/01/21 05:58:10;;;;;;;104.50;36.93;;;;;;;-15.89;67.20;101014.27;1740497;82;21356;-79
2021/01/21 06:00:39;;;;;;;105.27;39.77;;;;;;;-15.84;67.00;101017.55;1736526;81;21155;-75
2021/01/21 06:03:09;;;;;;;103.80;36.57;;;;;;;-15.82;66.93;101017.02;1746082;82;21588;-74
2021/01/21 06:05:40;;;;;;;107.60;38.43;;;;;;;-15.82;66.83;101022.27;1706706;81;21133;-80
2021/01/21 06:08:08;;;;;;;97.63;37.13;;;;;;;-15.82;66.82;101018.34;1739236;82;21145;-74
2021/01/21 06:10:35;;;;;;;;;;;;;;;-15.81;67.09;101018.74;1663150;83;21563;-78
2021/01/21 06:13:07;;;;;;;102.75;36.35;;;;;;;-15.76;66.92;101018.92;1696774;84;20188;-79
2021/01/21 06:15:35;;;;;;;106.03;36.87;;;;;;;-15.73;66.90;101018.80;1708207;81;21571;-79
2021/01/21 06:18:04;;;;;;;112.07;40.07;;;;;;;-15.73;66.97;101017.48;1702543;84;21192;-74
2021/01/21 06:20:40;;;;;;;101.20;39.40;;;;;;;-15.73;67.07;101013.55;1727029;80;21750;-72
2021/01/21 06:23:10;;;;;;;111.40;38.57;;;;;;;-15.68;67.01;101023.38;1768377;81;21683;-81
2021/01/21 06:25:40;;;;;;;111.17;38.60;;;;;;;-15.61;67.08;101020.06;1762695;81;21639;-81
2021/01/21 06:28:08;;;;;;;106.30;38.17;;;;;;;-15.56;66.96;101012.84;1750015;82;21121;-76
2021/01/21 06:30:36;;;;;;;108.90;39.00;;;;;;;-15.57;66.87;101012.44;1744033;81;21719;-75
2021/01/21 06:33:08;;;;;;;102.10;37.78;;;;;;;-15.54;66.75;101013.63;1714937;83;21611;-74
2021/01/21 06:35:49;;;;;;;106.67;37.17;;;;;;;-15.51;66.65;101016.13;1726050;80;21137;-75
2021/01/21 06:38:19;;;;;;;102.60;39.20;;;;;;;-15.46;66.80;101012.84;1733693;80;21121;-76
2021/01/21 06:40:50;;;;;;;106.17;40.00;;;;;;;-15.40;66.95;101005.96;1750341;82;21156;-76
2021/01/21 06:43:21;;;;;;;110.50;40.80;;;;;;;-15.39;67.08;100994.56;1737339;82;21149;-80
2021/01/21 06:45:48;;;;;;;105.27;38.37;;;;;;;-15.35;67.07;100993.49;1722663;82;21153;-76
2021/01/21 06:48:16;;;;;;;105.65;40.58;;;;;;;-15.35;66.90;100988.24;1716194;81;21137;-74
2021/01/21 06:50:44;;;;;;;111.20;40.03;;;;;;;-15.32;66.80;100989.87;1725702;83;21216;-74
2021/01/21 06:53:12;;;;;;;119.33;39.03;;;;;;;-15.21;67.04;100979.77;1736433;80;21204;-74
2021/01/21 06:55:40;;;;;;;107.60;40.12;;;;;;;-15.14;66.66;100982.05;1740324;81;21159;-80
2021/01/21 06:58:09;;;;;;;107.63;40.07;;;;;;;-15.07;66.92;100974.73;1716621;81;21124;-80
2021/01/21 07:00:45;;;;;;;113.50;40.53;;;;;;;-14.97;66.92;100978.64;1754289;82;21655;-81
2021/01/21 07:03:28;;;;;;;113.27;40.27;;;;;;;-14.84;67.09;100984.17;1736092;80;21670;-79
2021/01/21 07:06:02;;;;;;;100.17;38.97;;;;;;;-14.70;67.10;100988.34;1729993;83;21807;-80
2021/01/21 07:08:30;;;;;;;111.63;41.40;;;;;;;-14.52;66.63;100988.30;1717388;80;21234;-73
2021/01/21 07:10:59;;;;;;;109.55;42.33;;;;;;;-14.39;66.12;100995.14;1687061;84;21118;-73
2021/01/21 07:13:30;;;;;;;121.63;45.80;;;;;;;-14.30;65.56;100994.69;1722244;80;21101;-76
2021/01/21 07:16:01;;;;;;;119.53;45.77;;;;;;;-14.22;65.18;100999.58;1730334;83;21683;-74
2021/01/21 07:18:36;;;;;;;117.80;43.90;;;;;;;-14.19;64.95;100996.80;1730930;80;21556;-80
2021/01/21 07:23:45;;;;;;;118.23;43.13;;;;;;;-14.19;64.58;100991.09;1828556;77;22180;-74
2021/01/21 07:26:39;;;;;;;119.80;45.53;;;;;;;-14.26;64.52;100998.86;1755553;80;21133;-73
2021/01/21 07:29:19;;;;;;;117.07;44.73;;;;;;;-14.25;64.70;100995.31;1732606;80;21133;-73
2021/01/21 07:31:59;;;;;;;125.37;45.63;;;;;;;-14.19;64.97;101000.29;1744035;79;21244;-71
2021/01/21 07:34:29;;;;;;;126.37;47.20;;;;;;;-14.18;64.65;100994.08;1742833;80;21153;-72
2021/01/21 07:37:29;;;;;;;122.47;44.80;;;;;;;-14.20;65.03;100986.74;1755433;81;21620;-83
2021/01/21 07:40:10;;;;;;;128.63;47.33;;;;;;;-14.14;64.74;100987.77;1739447;80;21133;-73
2021/01/21 07:42:44;;;;;;;123.57;46.80;;;;;;;-14.12;65.29;100986.37;1760602;81;21153;-84
2021/01/21 07:45:23;;;;;;;126.43;48.17;;;;;;;-14.06;65.03;100977.70;1759210;80;21150;-77
2021/01/21 07:47:51;;;;;;;116.47;45.85;;;;;;;-13.93;65.29;100981.42;1758322;80;21252;-78
2021/01/21 07:50:26;;;;;;;120.57;43.92;;;;;;;-13.75;64.81;100973.92;1732446;80;21141;-79
2021/01/21 07:52:58;;;;;;;122.17;42.63;;;;;;;-13.71;64.43;100968.05;1706621;83;21124;-80
2021/01/21 07:55:35;;;;;;;117.23;43.47;;;;;;;-13.68;64.93;100976.63;1678865;82;21162;-74
2021/01/21 07:58:37;;;;;;;115.52;43.23;;;;;;;-13.59;65.38;100970.05;1708757;83;21233;-78
2021/01/21 08:01:08;;;;;;;118.20;41.63;;;;;;;-13.50;64.64;100968.70;1705680;82;21252;-81
2021/01/21 08:03:40;;;;;;;110.67;40.73;;;;;;;-13.37;65.05;100978.98;1705081;82;21141;-72
2021/01/21 08:06:17;;;;;;;107.87;40.50;;;;;;;-13.30;64.59;100971.15;1699660;82;21170;-82
2021/01/21 08:08:47;;;;;;;113.93;41.80;;;;;;;-13.26;64.52;100963.49;1702913;82;21567;-76
2021/01/21 08:11:21;;;;;;;107.97;40.27;;;;;;;-13.18;64.86;100956.86;1708154;82;21685;-83
2021/01/21 08:13:58;;;;;;;104.17;42.03;;;;;;;-13.08;65.15;100961.20;1703173;82;21177;-80
2021/01/21 08:16:28;;;;;;;106.78;42.25;;;;;;;-12.99;64.88;100968.10;1680420;82;21208;-74
2021/01/21 08:19:00;;;;;;;116.47;42.50;;;;;;;-12.88;63.85;100966.21;1703168;82;21170;-84
2021/01/21 08:21:33;;;;;;;110.00;43.60;;;;;;;-12.83;64.33;100960.69;1681989;82;21284;-84
2021/01/21 08:24:03;;;;;;;116.17;42.67;;;;;;;-12.76;64.70;100954.14;1705427;82;21626;-75
2021/01/21 08:26:32;;;;;;;113.97;44.27;;;;;;;-12.73;64.90;100948.23;1710296;82;21121;-75
2021/01/21 08:29:01;;;;;;;119.10;42.53;;;;;;;-12.70;64.45;100946.76;1703249;82;21312;-86
2021/01/21 08:31:46;;;;;;;108.67;41.77;;;;;;;-12.65;64.42;100936.81;1709051;82;21194;-86
2021/01/21 08:34:23;;;;;;;109.97;43.57;;;;;;;-12.58;64.24;100936.84;1723687;82;21533;-75
2021/01/21 08:37:03;;;;;;;115.97;44.25;;;;;;;-12.51;64.66;100932.06;1695821;82;21234;-84
2021/01/21 08:39:32;;;;;;;112.27;41.93;;;;;;;-12.47;64.41;100933.11;1682815;82;21150;-86
2021/01/21 08:42:03;;;;;;;108.13;42.23;;;;;;;-12.39;64.23;100920.81;1674707;82;21170;-84
2021/01/21 08:44:31;;;;;;;107.13;41.33;;;;;;;-12.33;64.40;100909.46;1705813;82;21175;-84
2021/01/21 08:47:01;;;;;;;108.97;39.93;;;;;;;-12.25;64.42;100910.80;1705486;82;21178;-74
2021/01/21 08:49:34;;;;;;;109.77;40.93;;;;;;;-12.13;63.91;100920.64;1705354;82;21131;-77
2021/01/21 08:52:09;;;;;;;108.30;42.20;;;;;;;-12.05;63.77;100910.48;1671747;83;21575;-76
2021/01/21 08:54:53;;;;;;;108.33;40.30;;;;;;;-11.98;63.66;100912.68;1704903;82;21191;-77
2021/01/21 08:57:23;;;;;;;103.50;38.83;;;;;;;-11.91;63.01;100905.23;1702416;82;21166;-78
2021/01/21 08:59:51;;;;;;;105.33;39.13;;;;;;;-11.87;63.34;100906.77;1690909;82;21210;-75
2021/01/21 09:02:41;;;;;;;106.58;39.75;;;;;;;-11.82;63.33;100909.53;1662637;84;21220;-74
2021/01/21 09:05:11;;;;;;;99.30;38.00;;;;;;;-11.80;63.15;100901.50;1690461;82;21301;-74
2021/01/21 09:07:39;;;;;;;103.87;38.97;;;;;;;-11.80;62.15;100894.91;1692158;83;21742;-74
2021/01/21 09:10:11;;;;;;;101.75;40.40;;;;;;;-11.83;62.42;100896.40;1701892;82;21618;-74
2021/01/21 09:12:40;;;;;;;105.10;40.23;;;;;;;-11.82;62.18;100894.16;1695014;83;21177;-75
2021/01/21 09:15:12;;;;;;;116.25;42.08;;;;;;;-11.79;62.62;100874.18;1674461;83;21169;-75
2021/01/21 09:17:41;;;;;;;112.37;42.10;;;;;;;-11.74;62.93;100878.22;1707159;82;21156;-75
2021/01/21 09:20:30;;;;;;;108.20;41.70;;;;;;;-11.69;63.46;100877.96;1698912;82;21763;-79
2021/01/21 09:23:22;;;;;;;111.17;42.57;;;;;;;-11.60;63.51;100874.72;1703791;82;21653;-74
2021/01/21 09:25:50;;;;;;;116.93;42.57;;;;;;;-11.48;63.34;100871.31;1697015;82;21743;-77
2021/01/21 09:28:19;;;;;;;121.23;48.17;;;;;;;-11.32;63.17;100864.16;1675214;83;21111;-75
2021/01/21 09:30:48;;;;;;;116.90;46.03;;;;;;;-11.18;63.32;100868.59;1669582;83;21575;-85
2021/01/21 09:33:16;;;;;;;130.67;45.70;;;;;;;-11.12;63.45;100859.80;1656338;83;21633;-81
2021/01/21 09:35:45;;;;;;;110.17;43.53;;;;;;;-11.05;63.16;100859.77;1702717;82;21261;-77
2021/01/21 09:38:12;;;;;;;103.83;41.95;;;;;;;-11.01;63.27;100853.83;1672703;84;21646;-81
2021/01/21 09:40:40;;;;;;;109.95;41.95;;;;;;;-10.92;63.61;100851.06;1713720;82;21138;-75
2021/01/21 09:43:10;;;;;;;111.13;42.77;;;;;;;-10.83;63.75;100838.59;1703882;82;21165;-83
2021/01/21 09:45:40;;;;;;;102.90;42.83;;;;;;;-10.70;63.80;100824.95;1708687;82;21160;-84
2021/01/21 09:48:09;;;;;;;111.50;43.43;;;;;;;-10.57;63.92;100825.81;1694958;82;21197;-77
2021/01/21 09:50:39;;;;;;;106.17;41.30;;;;;;;-10.44;63.97;100819.63;1709491;82;21252;-86
2021/01/21 09:53:07;;;;;;;95.32;37.95;;;;;;;-10.29;63.71;100821.72;1701137;82;21131;-76
2021/01/21 09:55:35;;;;;;;97.27;37.67;;;;;;;-10.17;63.24;100817.42;1705618;82;21523;-74
2021/01/21 09:58:06;;;;;;;111.43;41.07;;;;;;;-10.10;63.96;100818.19;1702755;82;21210;-83
2021/01/21 10:00:34;;;;;;;102.62;39.00;;;;;;;-10.05;63.37;100808.61;1698153;82;21193;-78
2021/01/21 10:03:02;;;;;;;97.90;38.50;;;;;;;-10.05;63.49;100813.43;1714517;82;21144;-76
2021/01/21 10:05:30;;;;;;;106.83;40.40;;;;;;;-10.05;63.14;100805.48;1706642;82;21215;-78
2021/01/21 10:07:57;;;;;;;99.28;39.27;;;;;;;-10.05;63.45;100800.20;1692995;82;21194;-74
2021/01/21 10:10:26;;;;;;;100.70;41.55;;;;;;;-10.02;63.79;100805.29;1702394;82;21135;-75
2021/01/21 10:12:53;;;;;;;102.30;40.55;;;;;;;-9.98;63.92;100805.44;1699781;82;21728;-77
2021/01/21 10:15:21;;;;;;;101.47;41.20;;;;;;;-9.90;64.31;100804.91;1713200;82;21149;-78
2021/01/21 10:17:50;;;;;;;110.55;41.15;;;;;;;-9.83;63.72;100808.35;1709601;82;21753;-76
2021/01/21 10:20:18;;;;;;;108.87;41.33;;;;;;;-9.81;63.13;100810.88;1713556;82;21133;-77
2021/01/21 10:22:48;;;;;;;103.10;40.93;;;;;;;-9.78;63.72;100803.58;1709611;82;21172;-76
2021/01/21 10:25:16;;;;;;;98.27;40.55;;;;;;;-9.73;64.16;100791.34;1720409;82;21153;-74
2021/01/21 10:27:44;;;;;;;104.30;41.42;;;;;;;-9.64;64.25;100785.89;1705648;82;21110;-78
2021/01/21 10:30:13;;;;;;;107.03;41.45;;;;;;;-9.57;63.95;100787.14;1676120;84;21141;-85
2021/01/21 10:32:41;;;;;;;99.50;41.57;;;;;;;-9.51;63.47;100781.42;1718295;82;21568;-83
2021/01/21 10:35:11;;;;;;;100.12;40.67;;;;;;;-9.43;63.70;100784.35;1700729;82;21156;-81
2021/01/21 10:37:40;;;;;;;102.23;39.63;;;;;;;-9.34;64.03;100770.47;1705658;82;21269;-80
2021/01/21 10:40:09;;;;;;;97.67;39.50;;;;;;;-9.32;64.27;100754.82;1701778;82;21488;-79
2021/01/21 10:42:37;;;;;;;97.87;38.13;;;;;;;-9.29;64.48;100755.08;1711901;82;21270;-78
2021/01/21 10:49:14;;;;;;;82.13;33.63;;;;;;;-8.98;64.58;100734.67;1809764;77;22158;-82
2021/01/21 10:51:42;;;;;;;82.17;32.80;;;;;;;-8.94;64.44;100730.81;1758865;80;21410;-76
2021/01/21 10:54:10;;;;;;;76.45;32.90;;;;;;;-8.90;64.19;100726.97;1713781;82;21129;-81
2021/01/21 10:56:39;;;;;;;82.10;34.17;;;;;;;-8.91;64.26;100721.31;1705640;83;21208;-81
2021/01/21 10:59:07;;;;;;;78.12;34.43;;;;;;;-8.86;64.73;100723.62;1725027;82;21306;-77
2021/01/21 11:01:35;;;;;;;;;;;;;;;-8.82;64.70;100724.59;1709523;83;23266;-79
2021/01/21 11:04:04;;;;;;;;;;;;;;;-8.77;64.73;100720.27;1723243;83;20572;-85
2021/01/21 11:06:32;;;;;;;84.33;33.00;;;;;;;-8.73;65.01;100721.28;1717520;82;20328;-81
2021/01/21 11:09:00;;;;;;;85.20;34.00;;;;;;;-8.67;64.92;100714.64;1681065;84;21176;-80
2021/01/21 11:11:27;;;;;;;88.05;35.50;;;;;;;-8.59;65.22;100715.77;1703751;82;21190;-80
2021/01/21 11:13:57;;;;;;;90.40;34.67;;;;;;;-8.56;65.00;100698.29;1700583;84;21496;-80
2021/01/21 11:16:25;;;;;;;97.37;38.23;;;;;;;-8.51;64.67;100696.13;1706770;83;21568;-79
2021/01/21 11:18:53;;;;;;;84.20;37.28;;;;;;;-8.41;64.53;100690.48;1700794;84;21183;-86
2021/01/21 11:21:22;;;;;;;90.20;37.73;;;;;;;-8.34;64.78;100687.34;1702468;84;22471;-76
2021/01/21 11:23:50;;;;;;;88.90;37.48;;;;;;;-8.33;64.44;100686.39;1692821;84;21583;-76
2021/01/21 11:26:18;;;;;;;87.43;37.87;;;;;;;-8.30;64.22;100677.72;1705154;83;21191;-76